createdAt,value
2019-06-27T00:00:19.406Z,8.63
2019-06-27T00:05:25.021Z,9.35
2019-06-27T00:10:33.928Z,8.48
2019-06-27T00:15:37.473Z,9.80
2019-06-27T00:20:42.788Z,9.13
2019-06-27T00:25:48.118Z,8.98
2019-06-27T00:30:53.421Z,8.95
2019-06-27T00:35:58.766Z,8.85
2019-06-27T00:41:04.065Z,9.50
2019-06-27T00:46:09.382Z,10.00
2019-06-27T00:51:14.707Z,10.13
2019-06-27T00:56:20.182Z,10.30
2019-06-27T01:01:25.461Z,9.55
2019-06-27T01:06:30.759Z,10.65
2019-06-27T01:11:36.165Z,10.10
2019-06-27T01:16:41.418Z,10.85
2019-06-27T01:21:46.799Z,10.85
2019-06-27T01:26:52.130Z,10.05
2019-06-27T01:31:57.438Z,10.25
2019-06-27T01:37:02.761Z,10.25
2019-06-27T01:42:08.072Z,10.30
2019-06-27T01:47:13.413Z,10.23
2019-06-27T01:52:18.712Z,9.88
2019-06-27T01:57:24.241Z,9.35
2019-06-27T02:02:29.727Z,9.63
2019-06-27T02:07:36.145Z,9.50
2019-06-27T02:12:41.452Z,8.45
2019-06-27T02:17:46.753Z,9.80
2019-06-27T02:22:52.081Z,9.58
2019-06-27T02:28:03.913Z,9.93
2019-06-27T02:33:04.380Z,9.08
2019-06-27T02:38:10.024Z,9.43
2019-06-27T02:43:15.317Z,10.38
2019-06-27T02:48:21.678Z,10.68
2019-06-27T02:53:27.014Z,10.60
2019-06-27T02:58:32.820Z,10.25
2019-06-27T03:03:38.438Z,10.95
2019-06-27T03:08:43.771Z,11.12
2019-06-27T03:13:50.079Z,10.95
2019-06-27T03:18:55.400Z,10.50
2019-06-27T03:24:00.772Z,11.80
2019-06-27T03:29:09.337Z,10.63
2019-06-27T03:34:14.694Z,10.68
2019-06-27T03:39:20.053Z,10.70
2019-06-27T03:44:25.458Z,10.80
2019-06-27T03:49:30.786Z,10.80
2019-06-27T03:54:36.137Z,11.33
2019-06-27T03:59:41.597Z,11.68
2019-06-27T04:04:47.033Z,12.85
2019-06-27T04:09:52.456Z,13.25
2019-06-27T04:14:57.869Z,12.50
2019-06-27T04:20:03.195Z,13.08
2019-06-27T04:25:09.209Z,12.95
2019-06-27T04:30:14.809Z,13.15
2019-06-27T04:35:20.239Z,13.45
2019-06-27T04:40:25.761Z,14.15
2019-06-27T04:45:31.143Z,14.05
2019-06-27T04:50:36.752Z,14.05
2019-06-27T04:55:42.154Z,14.23
2019-06-27T05:00:47.554Z,14.03
2019-06-27T05:05:52.977Z,12.88
2019-06-27T05:10:59.427Z,14.58
2019-06-27T05:16:04.767Z,13.88
2019-06-27T05:21:10.090Z,14.30
2019-06-27T05:26:15.461Z,14.23
2019-06-27T05:31:20.785Z,13.22
2019-06-27T05:36:26.105Z,13.28
2019-06-27T05:41:31.432Z,13.40
2019-06-27T05:46:36.752Z,13.75
2019-06-27T05:51:42.107Z,12.68
2019-06-27T05:56:47.445Z,12.63
2019-06-27T06:01:52.767Z,12.13
2019-06-27T06:06:58.130Z,12.55
2019-06-27T06:12:03.436Z,13.13
2019-06-27T06:17:08.776Z,11.80
2019-06-27T06:22:14.111Z,12.00
2019-06-27T06:27:20.364Z,11.57
2019-06-27T06:32:25.852Z,11.55
2019-06-27T06:37:31.188Z,12.18
2019-06-27T06:42:36.552Z,12.03
2019-06-27T06:47:42.813Z,12.13
2019-06-27T06:52:48.148Z,12.50
2019-06-27T06:57:53.472Z,11.68
2019-06-27T07:02:58.818Z,12.25
2019-06-27T07:08:04.167Z,11.35
2019-06-27T07:13:09.491Z,11.20
2019-06-27T07:18:14.903Z,11.93
2019-06-27T07:23:20.222Z,11.38
2019-06-27T07:28:26.007Z,11.08
2019-06-27T07:33:31.545Z,10.72
2019-06-27T07:38:36.864Z,10.85
2019-06-27T07:43:42.194Z,11.18
2019-06-27T07:48:47.540Z,10.18
2019-06-27T07:53:52.863Z,10.35
2019-06-27T07:58:58.216Z,9.85
2019-06-27T08:04:03.531Z,9.83
2019-06-27T08:09:08.863Z,10.18
2019-06-27T08:14:14.197Z,9.30
2019-06-27T08:19:19.524Z,9.25
2019-06-27T08:24:24.871Z,9.13
2019-06-27T08:29:30.373Z,8.50
2019-06-27T08:34:36.084Z,8.60
2019-06-27T08:39:41.947Z,8.45
2019-06-27T08:44:47.851Z,9.13
2019-06-27T08:49:53.238Z,8.75
2019-06-27T08:54:58.542Z,8.60
2019-06-27T09:00:04.033Z,8.20
2019-06-27T09:05:10.273Z,8.58
2019-06-27T09:10:15.820Z,9.18
2019-06-27T09:15:21.358Z,8.30
2019-06-27T09:20:26.690Z,9.15
2019-06-27T09:25:32.070Z,8.63
2019-06-27T09:30:37.394Z,9.28
2019-06-27T09:35:43.807Z,9.40
2019-06-27T09:40:50.762Z,8.93
2019-06-27T09:45:56.106Z,8.33
2019-06-27T09:51:01.428Z,8.53
2019-06-27T09:56:06.759Z,7.97
2019-06-27T10:01:12.159Z,8.85
2019-06-27T10:06:17.527Z,8.15
2019-06-27T10:11:22.924Z,8.50
2019-06-27T10:16:28.280Z,8.38
2019-06-27T10:21:33.602Z,9.63
2019-06-27T10:26:39.003Z,8.80
2019-06-27T10:31:44.385Z,8.53
2019-06-27T10:36:49.747Z,7.37
2019-06-27T10:41:55.125Z,8.35
2019-06-27T10:47:00.737Z,7.12
2019-06-27T10:52:06.099Z,8.28
2019-06-27T10:57:11.475Z,7.97
2019-06-27T11:02:17.900Z,8.03
2019-06-27T11:07:23.268Z,8.75
2019-06-27T11:12:28.627Z,8.78
2019-06-27T11:17:35.231Z,8.03
2019-06-27T11:22:40.563Z,8.18
2019-06-27T11:27:45.932Z,8.23
2019-06-27T11:32:51.288Z,8.53
2019-06-27T11:37:56.628Z,8.43
2019-06-27T11:43:02.202Z,8.73
2019-06-27T11:48:07.845Z,8.20
2019-06-27T11:53:13.191Z,7.97
2019-06-27T11:58:18.536Z,8.75
2019-06-27T12:03:23.897Z,7.92
2019-06-27T12:08:30.568Z,7.50
2019-06-27T12:13:36.090Z,7.20
2019-06-27T12:18:41.430Z,7.17
2019-06-27T12:23:46.929Z,7.12
2019-06-27T12:28:52.297Z,8.60
2019-06-27T12:34:06.778Z,7.42
2019-06-27T12:39:04.851Z,7.65
2019-06-27T12:44:10.570Z,7.92
2019-06-27T12:49:15.954Z,7.28
2019-06-27T12:54:21.393Z,7.08
2019-06-27T12:59:26.720Z,7.25
2019-06-27T13:04:32.106Z,6.97
2019-06-27T13:09:37.418Z,6.50
2019-06-27T13:14:42.775Z,6.78
2019-06-27T13:19:49.207Z,6.92
2019-06-27T13:24:54.677Z,7.08
2019-06-27T13:30:00.026Z,6.75
2019-06-27T13:35:05.648Z,6.40
2019-06-27T13:40:11.490Z,6.70
2019-06-27T13:45:16.816Z,5.97
2019-06-27T13:50:22.179Z,5.03
2019-06-27T13:55:27.508Z,5.45
2019-06-27T14:00:43.516Z,4.97
2019-06-27T14:05:50.484Z,4.95
2019-06-27T14:10:55.788Z,4.80
2019-06-27T14:16:01.151Z,4.37
2019-06-27T14:21:06.496Z,4.83
2019-06-27T14:26:11.978Z,4.65
2019-06-27T14:31:17.292Z,5.25
2019-06-27T14:36:22.591Z,5.25
2019-06-27T14:41:27.907Z,4.28
2019-06-27T14:46:36.416Z,4.12
2019-06-27T14:51:40.301Z,3.80
2019-06-27T14:56:45.698Z,3.37
2019-06-27T15:01:51.122Z,4.50
2019-06-27T15:06:56.440Z,4.08
2019-06-27T15:12:01.849Z,3.65
2019-06-27T15:17:08.565Z,3.55
2019-06-27T15:22:14.092Z,3.20
2019-06-27T15:27:19.725Z,3.37
2019-06-27T15:32:25.042Z,2.05
2019-06-27T15:37:31.509Z,2.70
2019-06-27T15:42:39.011Z,2.58
2019-06-27T15:47:44.388Z,2.40
2019-06-27T15:52:49.704Z,2.52
2019-06-27T15:57:55.093Z,2.42
2019-06-27T16:03:00.480Z,2.20
2019-06-27T16:08:06.028Z,2.72
2019-06-27T16:13:11.386Z,2.37
2019-06-27T16:18:17.866Z,2.92
2019-06-27T16:23:23.183Z,2.65
2019-06-27T16:28:28.555Z,2.75
2019-06-27T16:33:34.024Z,2.98
2019-06-27T16:38:39.576Z,3.40
2019-06-27T16:43:45.322Z,3.60
2019-06-27T16:48:51.673Z,7.03
2019-06-27T16:53:57.927Z,5.08
2019-06-27T16:59:05.206Z,2.70
2019-06-27T17:04:12.705Z,2.45
2019-06-27T17:09:19.110Z,2.90
2019-06-27T17:14:24.484Z,2.77
2019-06-27T17:19:30.681Z,2.42
2019-06-27T17:24:36.207Z,2.80
2019-06-27T17:29:41.562Z,1.70
2019-06-27T17:34:46.881Z,1.50
2019-06-27T17:39:52.293Z,1.72
2019-06-27T17:44:57.656Z,2.00
2019-06-27T17:50:03.067Z,2.60
2019-06-27T17:55:08.507Z,1.50
2019-06-27T18:00:14.054Z,1.55
2019-06-27T18:05:19.625Z,1.50
2019-06-27T18:10:25.147Z,1.60
2019-06-27T18:15:30.548Z,1.40
2019-06-27T18:20:35.907Z,1.50
2019-06-27T18:25:41.311Z,1.45
2019-06-27T18:30:47.755Z,1.82
2019-06-27T18:35:53.087Z,1.62
2019-06-27T18:40:58.448Z,1.27
2019-06-27T18:46:03.772Z,1.27
2019-06-27T18:51:09.101Z,1.50
2019-06-27T18:56:14.549Z,1.60
2019-06-27T19:01:19.983Z,1.45
2019-06-27T19:06:25.319Z,1.70
2019-06-27T19:11:30.723Z,1.92
2019-06-27T19:16:36.111Z,2.52
2019-06-27T19:21:58.154Z,1.50
2019-06-27T19:27:04.691Z,1.67
2019-06-27T19:32:09.998Z,1.60
2019-06-27T19:37:15.330Z,1.80
2019-06-27T19:42:20.675Z,1.70
2019-06-27T19:47:25.981Z,1.70
2019-06-27T19:52:31.304Z,1.67
2019-06-27T19:57:36.649Z,1.72
2019-06-27T20:02:45.109Z,1.80
2019-06-27T20:07:50.623Z,1.95
2019-06-27T20:12:56.037Z,1.75
2019-06-27T20:18:01.419Z,1.80
2019-06-27T20:23:06.830Z,1.70
2019-06-27T20:28:12.226Z,1.70
2019-06-27T20:33:17.646Z,1.62
2019-06-27T20:38:34.366Z,2.25
2019-06-27T20:43:30.086Z,1.85
2019-06-27T20:48:35.419Z,1.65
2019-06-27T20:53:42.944Z,1.50
2019-06-27T20:58:48.349Z,1.50
2019-06-27T21:03:54.003Z,1.40
2019-06-27T21:08:59.426Z,1.82
2019-06-27T21:14:04.788Z,1.30
2019-06-27T21:19:10.161Z,1.75
2019-06-27T21:24:15.574Z,1.60
2019-06-27T21:29:22.116Z,1.70
2019-06-27T21:34:27.511Z,1.42
2019-06-27T21:39:32.871Z,1.40
2019-06-27T21:44:38.187Z,1.60
2019-06-27T21:49:43.496Z,1.70
2019-06-27T21:54:48.855Z,2.13
2019-06-27T21:59:54.215Z,1.70
2019-06-27T22:04:59.583Z,2.17
2019-06-27T22:10:08.847Z,1.92
2019-06-27T22:15:14.609Z,1.93
2019-06-27T22:20:22.605Z,1.63
2019-06-27T22:25:39.651Z,2.03
2019-06-27T22:30:35.488Z,1.90
2019-06-27T22:35:41.491Z,1.73
2019-06-27T22:41:05.415Z,2.17
2019-06-27T22:46:28.467Z,1.90
2019-06-27T22:51:51.382Z,2.10
2019-06-27T22:56:57.135Z,2.00
2019-06-27T23:02:02.622Z,1.80
2019-06-27T23:07:07.998Z,2.17
2019-06-27T23:12:13.625Z,2.00
2019-06-27T23:17:19.010Z,1.93
2019-06-27T23:22:24.468Z,2.00
2019-06-27T23:27:29.818Z,2.13
2019-06-27T23:32:35.136Z,2.07
2019-06-27T23:37:40.454Z,1.93
2019-06-27T23:42:45.781Z,2.10
2019-06-27T23:47:51.183Z,2.37
2019-06-27T23:52:56.621Z,2.27
2019-06-27T23:58:01.942Z,2.30
